createdAt,value
2022-08-28T00:00:55.611Z,98327.06
2022-08-28T00:03:22.796Z,98325.50
2022-08-28T00:05:49.695Z,98322.06
2022-08-28T00:08:17.322Z,98313.53
2022-08-28T00:10:45.436Z,98314.13
2022-08-28T00:13:18.868Z,98303.94
2022-08-28T00:15:48.530Z,98299.47
2022-08-28T00:18:15.791Z,98306.50
2022-08-28T00:20:43.765Z,98292.78
2022-08-28T00:23:10.757Z,98295.19
2022-08-28T00:25:37.863Z,98291.38
2022-08-28T00:28:09.121Z,98291.06
2022-08-28T00:30:48.303Z,98285.87
2022-08-28T00:33:27.352Z,98276.94
2022-08-28T00:35:55.336Z,98278.16
2022-08-28T00:38:23.494Z,98268.59
2022-08-28T00:40:55.432Z,98264.78
2022-08-28T00:43:37.056Z,98261.06
2022-08-28T00:46:07.191Z,98264.59
2022-08-28T00:48:34.130Z,98271.13
2022-08-28T00:51:29.126Z,98259.38
2022-08-28T00:53:58.937Z,98261.75
2022-08-28T00:56:28.372Z,98252.53
2022-08-28T00:58:58.361Z,98252.12
2022-08-28T01:01:25.497Z,98248.84
2022-08-28T01:03:52.566Z,98243.75
2022-08-28T01:06:22.728Z,98226.00
2022-08-28T01:08:50.606Z,98224.66
2022-08-28T01:11:19.703Z,98218.78
2022-08-28T01:13:48.667Z,98218.56
2022-08-28T01:16:17.479Z,98222.03
2022-08-28T01:18:46.271Z,98216.63
2022-08-28T01:21:25.719Z,98228.50
2022-08-28T01:24:02.724Z,98241.91
2022-08-28T01:26:30.148Z,98253.41
2022-08-28T01:28:59.431Z,98245.97
2022-08-28T01:31:28.780Z,98246.91
2022-08-28T01:33:56.265Z,98236.72
2022-08-28T01:36:23.195Z,98224.19
2022-08-28T01:38:56.133Z,98215.38
2022-08-28T01:41:23.088Z,98218.59
2022-08-28T01:43:50.018Z,98220.78
2022-08-28T01:46:17.467Z,98221.09
2022-08-28T01:48:44.830Z,98219.59
2022-08-28T01:51:12.922Z,98225.28
2022-08-28T01:53:41.581Z,98231.03
2022-08-28T01:56:15.445Z,98229.59
2022-08-28T01:58:42.527Z,98225.75
2022-08-28T02:01:14.445Z,98219.41
2022-08-28T02:03:43.402Z,98227.28
2022-08-28T02:06:11.436Z,98227.72
2022-08-28T02:08:38.366Z,98223.03
2022-08-28T02:11:06.589Z,98225.09
2022-08-28T02:13:35.183Z,98225.87
2022-08-28T02:16:05.023Z,98230.09
2022-08-28T02:18:32.328Z,98246.25
2022-08-28T02:20:59.476Z,98251.53
2022-08-28T02:23:26.456Z,98255.03
2022-08-28T02:25:53.377Z,98254.97
2022-08-28T02:28:20.326Z,98270.00
2022-08-28T02:30:47.261Z,98269.84
2022-08-28T02:33:14.926Z,98281.84
2022-08-28T02:35:43.051Z,98294.88
2022-08-28T02:38:10.487Z,98293.69
2022-08-28T02:40:38.785Z,98299.50
2022-08-28T02:43:05.959Z,98304.88
2022-08-28T02:45:33.406Z,98300.47
2022-08-28T02:48:02.023Z,98298.56
2022-08-28T02:50:31.574Z,98295.13
2022-08-28T02:52:58.776Z,98293.78
2022-08-28T02:55:26.190Z,98290.97
2022-08-28T02:57:54.845Z,98287.97
2022-08-28T03:00:26.163Z,98277.72
2022-08-28T03:02:53.488Z,98276.50
2022-08-28T03:05:27.002Z,98278.16
2022-08-28T03:07:54.055Z,98283.16
2022-08-28T03:10:21.928Z,98274.03
2022-08-28T03:12:49.491Z,98272.09
2022-08-28T03:15:18.146Z,98262.94
2022-08-28T03:17:45.092Z,98249.03
2022-08-28T03:20:15.867Z,98261.44
2022-08-28T03:23:01.640Z,98264.94
2022-08-28T03:25:28.608Z,98267.12
2022-08-28T03:27:56.486Z,98277.06
2022-08-28T03:30:24.331Z,98286.41
2022-08-28T03:32:51.466Z,98290.00
2022-08-28T03:35:18.529Z,98295.72
2022-08-28T03:37:45.483Z,98296.16
2022-08-28T03:40:13.920Z,98308.22
2022-08-28T03:42:41.107Z,98303.09
2022-08-28T03:45:11.036Z,98311.28
2022-08-28T03:47:40.072Z,98323.31
2022-08-28T03:50:09.944Z,98314.84
2022-08-28T03:52:39.753Z,98321.19
2022-08-28T03:55:09.008Z,98322.03
2022-08-28T03:57:36.881Z,98319.03
2022-08-28T04:00:10.686Z,98314.75
2022-08-28T04:02:37.649Z,98323.91
2022-08-28T04:05:05.732Z,98326.03
2022-08-28T04:09:59.721Z,98316.94
2022-08-28T04:12:26.685Z,98321.38
2022-08-28T04:14:55.190Z,98320.31
2022-08-28T04:17:22.069Z,98323.38
2022-08-28T04:19:52.804Z,98323.63
2022-08-28T04:22:19.783Z,98330.06
2022-08-28T04:24:46.740Z,98329.94
2022-08-28T04:27:15.090Z,98330.84
2022-08-28T04:29:41.951Z,98323.38
2022-08-28T04:32:08.922Z,98325.69
2022-08-28T04:34:37.789Z,98320.62
2022-08-28T04:37:05.598Z,98326.50
2022-08-28T04:39:33.323Z,98327.38
2022-08-28T04:42:00.674Z,98321.16
2022-08-28T04:44:27.646Z,98325.25
2022-08-28T04:46:54.748Z,98328.97
2022-08-28T04:49:23.185Z,98327.59
2022-08-28T04:51:52.924Z,98325.19
2022-08-28T04:54:20.672Z,98320.56
2022-08-28T04:56:47.534Z,98329.72
2022-08-28T04:59:14.517Z,98338.38
2022-08-28T05:01:42.758Z,98338.50
2022-08-28T05:04:11.617Z,98331.87
2022-08-28T05:06:46.426Z,98335.22
2022-08-28T05:09:16.252Z,98332.66
2022-08-28T05:11:44.329Z,98339.81
2022-08-28T05:14:16.297Z,98335.72
2022-08-28T05:16:49.433Z,98340.53
2022-08-28T05:19:18.506Z,98337.03
2022-08-28T05:21:45.419Z,98346.41
2022-08-28T05:24:13.972Z,98349.66
2022-08-28T05:26:41.271Z,98357.09
2022-08-28T05:29:10.032Z,98361.41
2022-08-28T05:31:39.246Z,98361.50
2022-08-28T05:34:07.534Z,98363.94
2022-08-28T05:36:36.586Z,98363.53
2022-08-28T05:39:06.544Z,98366.78
2022-08-28T05:41:34.438Z,98366.22
2022-08-28T05:44:04.852Z,98372.66
2022-08-28T05:46:32.880Z,98374.72
2022-08-28T05:49:06.651Z,98376.09
2022-08-28T05:51:36.371Z,98370.19
2022-08-28T05:54:03.976Z,98375.06
2022-08-28T05:56:34.655Z,98393.03
2022-08-28T05:59:04.374Z,98383.28
2022-08-28T06:01:34.515Z,98391.03
2022-08-28T06:04:08.876Z,98393.56
2022-08-28T06:06:39.561Z,98397.94
2022-08-28T06:09:12.492Z,98402.16
2022-08-28T06:11:42.158Z,98395.69
2022-08-28T06:14:13.719Z,98393.50
2022-08-28T06:16:45.660Z,98398.38
2022-08-28T06:19:13.451Z,98395.84
2022-08-28T06:21:41.593Z,98404.72
2022-08-28T06:24:10.561Z,98405.34
2022-08-28T06:26:37.645Z,98407.63
2022-08-28T06:29:07.859Z,98409.06
2022-08-28T06:31:34.997Z,98411.44
2022-08-28T06:34:02.308Z,98411.25
2022-08-28T06:36:31.357Z,98422.94
2022-08-28T06:39:00.218Z,98406.31
2022-08-28T06:41:28.873Z,98416.94
2022-08-28T06:43:56.480Z,98412.28
2022-08-28T06:46:25.151Z,98418.56
2022-08-28T06:48:52.871Z,98422.72
2022-08-28T06:51:20.085Z,98422.87
2022-08-28T06:53:50.109Z,98426.13
2022-08-28T06:56:26.587Z,98424.00
2022-08-28T06:58:56.338Z,98419.97
2022-08-28T07:01:29.582Z,98427.69
2022-08-28T07:04:00.072Z,98429.31
2022-08-28T07:06:30.859Z,98437.44
2022-08-28T07:08:57.791Z,98433.34
2022-08-28T07:11:28.833Z,98430.28
2022-08-28T07:13:57.076Z,98437.75
2022-08-28T07:16:28.014Z,98431.66
2022-08-28T07:18:55.118Z,98434.88
2022-08-28T07:21:22.447Z,98431.94
2022-08-28T07:23:50.116Z,98438.53
2022-08-28T07:26:23.505Z,98434.09
2022-08-28T07:28:51.873Z,98433.91
2022-08-28T07:31:22.954Z,98436.78
2022-08-28T07:33:53.531Z,98440.47
2022-08-28T07:36:29.732Z,98439.50
2022-08-28T07:38:59.151Z,98440.63
2022-08-28T07:41:32.413Z,98440.69
2022-08-28T07:44:18.592Z,98442.03
2022-08-28T07:46:46.241Z,98435.06
2022-08-28T07:49:17.246Z,98433.41
2022-08-28T07:51:46.625Z,98432.53
2022-08-28T07:54:17.596Z,98426.09
2022-08-28T07:56:46.648Z,98427.25
2022-08-28T07:59:16.875Z,98422.31
2022-08-28T08:01:46.697Z,98430.50
2022-08-28T08:04:16.298Z,98434.88
2022-08-28T08:06:44.362Z,98429.53
2022-08-28T08:09:14.140Z,98431.97
2022-08-28T08:11:41.404Z,98439.34
2022-08-28T08:14:08.830Z,98439.22
2022-08-28T08:16:39.277Z,98437.50
2022-08-28T08:19:10.144Z,98443.63
2022-08-28T08:21:37.801Z,98448.31
2022-08-28T08:24:04.980Z,98443.19
2022-08-28T08:26:33.216Z,98443.63
2022-08-28T08:29:00.901Z,98440.34
2022-08-28T08:31:33.010Z,98445.84
2022-08-28T08:34:04.867Z,98445.91
2022-08-28T08:36:34.978Z,98452.59
2022-08-28T08:39:01.987Z,98451.28
2022-08-28T08:41:48.575Z,98450.31
2022-08-28T08:44:40.488Z,98448.53
2022-08-28T08:47:25.481Z,98453.63
2022-08-28T08:50:05.534Z,98451.22
2022-08-28T08:53:12.567Z,98450.84
2022-08-28T08:55:46.516Z,98450.75
2022-08-28T08:58:37.886Z,98455.69
2022-08-28T09:01:13.683Z,98453.50
2022-08-28T09:03:55.799Z,98451.56
2022-08-28T09:06:52.854Z,98454.88
2022-08-28T09:09:35.756Z,98459.94
2022-08-28T09:12:06.000Z,98456.75
2022-08-28T09:15:07.958Z,98460.13
2022-08-28T09:17:36.624Z,98458.28
2022-08-28T09:20:09.725Z,98458.38
2022-08-28T09:22:44.023Z,98456.22
2022-08-28T09:25:13.280Z,98461.16
2022-08-28T09:27:47.750Z,98461.16
2022-08-28T09:30:14.749Z,98451.06
2022-08-28T09:32:44.610Z,98457.09
2022-08-28T09:35:22.085Z,98461.81
2022-08-28T09:37:48.930Z,98459.19
2022-08-28T09:40:17.717Z,98458.62
2022-08-28T09:43:28.103Z,98461.66
2022-08-28T09:46:03.074Z,98466.12
2022-08-28T09:48:44.538Z,98459.59
2022-08-28T09:51:26.592Z,98450.06
2022-08-28T09:53:56.398Z,98458.16
2022-08-28T09:56:26.257Z,98461.66
2022-08-28T09:58:57.934Z,98455.31
2022-08-28T10:01:55.440Z,98448.50
2022-08-28T10:04:32.993Z,98449.81
2022-08-28T10:07:05.631Z,98448.13
2022-08-28T10:09:55.064Z,98450.50
2022-08-28T10:12:46.882Z,98447.41
2022-08-28T10:15:23.025Z,98455.19
2022-08-28T10:17:55.298Z,98448.78
2022-08-28T10:20:37.535Z,98445.66
2022-08-28T10:23:07.538Z,98442.56
2022-08-28T10:26:09.874Z,98436.97
2022-08-28T10:28:50.632Z,98437.78
2022-08-28T10:31:37.199Z,98443.09
2022-08-28T10:34:04.897Z,98435.44
2022-08-28T10:36:35.123Z,98432.69
2022-08-28T10:39:22.827Z,98439.41
2022-08-28T10:41:54.978Z,98437.16
2022-08-28T10:44:28.864Z,98439.22
2022-08-28T10:46:58.117Z,98440.22
2022-08-28T10:49:31.196Z,98440.91
2022-08-28T10:52:16.316Z,98432.91
2022-08-28T10:55:01.516Z,98435.22
2022-08-28T10:57:39.458Z,98437.47
2022-08-28T11:00:16.496Z,98438.31
2022-08-28T11:02:50.238Z,98430.25
2022-08-28T11:05:26.278Z,98434.28
2022-08-28T11:08:01.118Z,98431.34
2022-08-28T11:10:36.944Z,98428.56
2022-08-28T11:13:06.632Z,98426.00
2022-08-28T11:15:37.016Z,98431.34
2022-08-28T11:18:16.485Z,98430.75
2022-08-28T11:21:23.764Z,98424.91
2022-08-28T11:24:00.204Z,98431.78
2022-08-28T11:26:39.888Z,98422.75
2022-08-28T11:29:06.840Z,98427.28
2022-08-28T11:31:37.873Z,98424.88
2022-08-28T11:34:06.362Z,98420.88
2022-08-28T11:36:33.160Z,98422.34
2022-08-28T11:39:17.794Z,98431.44
2022-08-28T11:42:09.534Z,98426.47
2022-08-28T11:44:45.028Z,98428.63
2022-08-28T11:47:35.405Z,98419.50
2022-08-28T11:50:17.703Z,98412.41
2022-08-28T11:53:10.928Z,98425.97
2022-08-28T11:56:05.883Z,98426.53
2022-08-28T11:58:47.207Z,98420.81
2022-08-28T12:01:28.278Z,98416.56
2022-08-28T12:04:07.944Z,98423.81
2022-08-28T12:07:13.475Z,98420.91
2022-08-28T12:09:43.362Z,98415.09
2022-08-28T12:12:45.163Z,98405.28
2022-08-28T12:15:43.093Z,98406.91
2022-08-28T12:18:12.757Z,98415.91
2022-08-28T12:20:52.146Z,98405.94
2022-08-28T12:23:58.875Z,98409.53
2022-08-28T12:26:30.212Z,98421.97
2022-08-28T12:28:59.966Z,98414.78
2022-08-28T12:32:12.019Z,98409.59
2022-08-28T12:34:59.946Z,98412.75
2022-08-28T12:37:52.766Z,98411.00
2022-08-28T12:40:34.592Z,98407.34
2022-08-28T12:43:05.680Z,98411.97
2022-08-28T12:45:38.683Z,98423.41
2022-08-28T12:48:25.409Z,98414.13
2022-08-28T12:51:05.308Z,98415.63
2022-08-28T12:53:44.958Z,98420.16
2022-08-28T12:56:14.514Z,98426.81
2022-08-28T12:58:42.764Z,98414.38
2022-08-28T13:01:14.517Z,98426.44
2022-08-28T13:03:54.877Z,98413.13
2022-08-28T13:06:26.966Z,98411.62
2022-08-28T13:09:02.245Z,98422.66
2022-08-28T13:11:36.499Z,98443.28
2022-08-28T13:14:04.859Z,98459.97
2022-08-28T13:16:41.396Z,98445.09
2022-08-28T13:19:08.433Z,98453.94
2022-08-28T13:21:47.322Z,98477.63
2022-08-28T13:24:23.770Z,98480.56
2022-08-28T13:27:04.467Z,98490.47
2022-08-28T13:29:32.492Z,98493.53
2022-08-28T13:32:18.314Z,98498.53
2022-08-28T13:35:09.821Z,98504.88
2022-08-28T13:37:50.506Z,98501.19
2022-08-28T13:43:11.080Z,98504.84
2022-08-28T13:45:43.564Z,98493.59
2022-08-28T13:48:15.829Z,98498.16
2022-08-28T13:50:47.552Z,98483.66
2022-08-28T13:53:18.051Z,98481.97
2022-08-28T13:55:46.241Z,98480.28
2022-08-28T13:58:14.115Z,98483.87
2022-08-28T14:00:44.879Z,98478.47
2022-08-28T14:03:31.323Z,98485.66
2022-08-28T14:05:58.229Z,98480.78
2022-08-28T14:08:25.381Z,98480.84
2022-08-28T14:10:52.247Z,98489.28
2022-08-28T14:13:20.047Z,98498.84
2022-08-28T14:15:47.649Z,98497.25
2022-08-28T14:18:14.564Z,98490.84
2022-08-28T14:20:41.504Z,98492.75
2022-08-28T14:23:11.474Z,98490.09
2022-08-28T14:25:46.887Z,98495.78
2022-08-28T14:28:14.620Z,98488.84
2022-08-28T14:30:50.521Z,98485.81
2022-08-28T14:33:20.815Z,98485.72
2022-08-28T14:35:49.210Z,98482.16
2022-08-28T14:38:16.902Z,98483.78
2022-08-28T14:40:44.800Z,98476.72
2022-08-28T14:43:13.834Z,98473.78
2022-08-28T14:45:49.685Z,98475.00
2022-08-28T14:48:19.481Z,98473.56
2022-08-28T14:50:48.298Z,98461.28
2022-08-28T14:53:16.434Z,98467.03
2022-08-28T14:55:45.748Z,98473.66
2022-08-28T14:58:12.881Z,98477.44
2022-08-28T15:00:42.453Z,98490.09
2022-08-28T15:03:10.330Z,98482.56
2022-08-28T15:05:37.313Z,98483.28
2022-08-28T15:08:11.357Z,98474.78
2022-08-28T15:10:39.650Z,98463.31
2022-08-28T15:13:09.390Z,98465.28
2022-08-28T15:15:39.685Z,98458.75
2022-08-28T15:18:08.158Z,98462.50
2022-08-28T15:20:44.377Z,98467.13
2022-08-28T15:23:14.139Z,98470.09
2022-08-28T15:25:41.804Z,98465.56
2022-08-28T15:28:09.142Z,98467.84
2022-08-28T15:30:36.995Z,98470.38
2022-08-28T15:33:04.059Z,98471.75
2022-08-28T15:35:31.278Z,98467.19
2022-08-28T15:37:58.275Z,98457.97
2022-08-28T15:40:43.790Z,98457.72
2022-08-28T15:43:10.823Z,98461.59
2022-08-28T15:45:39.485Z,98461.87
2022-08-28T15:48:08.349Z,98468.19
2022-08-28T15:50:35.903Z,98459.69
2022-08-28T15:53:04.046Z,98461.09
2022-08-28T15:55:34.128Z,98449.34
2022-08-28T15:58:03.982Z,98452.25
2022-08-28T16:00:34.498Z,98448.34
2022-08-28T16:03:01.709Z,98454.94
2022-08-28T16:05:33.854Z,98443.12
2022-08-28T16:08:06.491Z,98442.09
2022-08-28T16:10:33.411Z,98440.19
2022-08-28T16:13:01.246Z,98447.50
2022-08-28T16:15:29.470Z,98449.28
2022-08-28T16:17:57.041Z,98452.16
2022-08-28T16:20:25.287Z,98452.31
2022-08-28T16:22:53.086Z,98452.16
2022-08-28T16:25:20.075Z,98449.16
2022-08-28T16:27:46.945Z,98465.91
2022-08-28T16:30:16.072Z,98472.97
2022-08-28T16:32:46.597Z,98476.53
2022-08-28T16:35:15.177Z,98472.84
2022-08-28T16:37:43.019Z,98466.75
2022-08-28T16:40:10.833Z,98464.94
2022-08-28T16:42:38.682Z,98466.56
2022-08-28T16:45:06.708Z,98468.19
2022-08-28T16:47:35.733Z,98468.78
2022-08-28T16:50:09.184Z,98468.34
2022-08-28T16:52:36.263Z,98466.28
2022-08-28T16:55:05.094Z,98481.44
2022-08-28T16:57:32.295Z,98475.50
2022-08-28T17:00:00.471Z,98482.75
2022-08-28T17:02:28.087Z,98478.34
2022-08-28T17:04:55.942Z,98482.13
2022-08-28T17:07:23.007Z,98488.44
2022-08-28T17:09:49.831Z,98484.66
2022-08-28T17:12:16.914Z,98474.13
2022-08-28T17:14:44.007Z,98482.31
2022-08-28T17:17:11.067Z,98478.59
2022-08-28T17:19:38.459Z,98487.91
2022-08-28T17:22:25.094Z,98495.50
2022-08-28T17:24:54.879Z,98501.28
2022-08-28T17:27:22.780Z,98515.66
2022-08-28T17:29:50.693Z,98513.28
2022-08-28T17:32:17.750Z,98498.94
2022-08-28T17:34:45.546Z,98504.63
2022-08-28T17:37:13.180Z,98509.53
2022-08-28T17:39:40.108Z,98523.25
2022-08-28T17:42:07.180Z,98524.69
2022-08-28T17:44:35.443Z,98526.00
2022-08-28T17:47:02.813Z,98527.31
2022-08-28T17:49:29.833Z,98532.53
2022-08-28T17:51:56.899Z,98542.53
2022-08-28T17:54:24.520Z,98543.13
2022-08-28T17:56:53.162Z,98552.97
2022-08-28T17:59:21.264Z,98552.66
2022-08-28T18:01:49.643Z,98551.72
2022-08-28T18:04:23.894Z,98547.34
2022-08-28T18:06:54.293Z,98564.56
2022-08-28T18:09:22.550Z,98562.94
2022-08-28T18:11:49.901Z,98566.81
2022-08-28T18:14:17.348Z,98564.44
2022-08-28T18:16:44.454Z,98570.75
2022-08-28T18:19:12.090Z,98576.22
2022-08-28T18:21:39.587Z,98576.22
2022-08-28T18:24:07.775Z,98582.87
2022-08-28T18:26:34.721Z,98586.25
2022-08-28T18:29:01.668Z,98590.31
2022-08-28T18:31:28.819Z,98588.59
2022-08-28T18:33:55.729Z,98585.03
2022-08-28T18:36:23.366Z,98582.47
2022-08-28T18:38:50.646Z,98576.63
2022-08-28T18:41:20.274Z,98583.91
2022-08-28T18:43:47.875Z,98588.16
2022-08-28T18:46:14.912Z,98580.50
2022-08-28T18:48:42.700Z,98591.91
2022-08-28T18:51:12.207Z,98588.69
2022-08-28T18:53:42.606Z,98585.03
2022-08-28T18:56:12.229Z,98602.28
2022-08-28T18:58:41.680Z,98605.19
2022-08-28T19:01:09.986Z,98601.91
2022-08-28T19:03:38.000Z,98602.34
2022-08-28T19:06:06.467Z,98607.81
2022-08-28T19:08:35.392Z,98608.13
2022-08-28T19:11:07.832Z,98617.22
2022-08-28T19:13:35.894Z,98610.25
2022-08-28T19:16:03.327Z,98613.13
2022-08-28T19:18:30.696Z,98606.09
2022-08-28T19:21:09.353Z,98614.13
2022-08-28T19:23:36.882Z,98617.59
2022-08-28T19:26:04.062Z,98611.84
2022-08-28T19:28:30.927Z,98626.19
2022-08-28T19:30:57.906Z,98622.72
2022-08-28T19:33:24.878Z,98625.38
2022-08-28T19:35:51.974Z,98640.97
2022-08-28T19:38:19.009Z,98642.69
2022-08-28T19:40:46.015Z,98643.72
2022-08-28T19:43:16.559Z,98645.97
2022-08-28T19:45:45.339Z,98650.94
2022-08-28T19:48:12.400Z,98657.25
2022-08-28T19:50:39.651Z,98660.31
2022-08-28T19:53:07.684Z,98653.91
2022-08-28T19:55:34.657Z,98649.63
2022-08-28T19:58:05.323Z,98652.28
2022-08-28T20:00:33.114Z,98663.41
2022-08-28T20:03:00.182Z,98665.53
2022-08-28T20:05:27.219Z,98661.16
2022-08-28T20:07:54.115Z,98665.09
2022-08-28T20:10:21.517Z,98663.19
2022-08-28T20:12:48.952Z,98665.81
2022-08-28T20:15:17.871Z,98674.19
2022-08-28T20:17:49.497Z,98676.41
2022-08-28T20:20:30.030Z,98675.91
2022-08-28T20:22:57.076Z,98677.34
2022-08-28T20:25:24.000Z,98673.94
2022-08-28T20:27:50.929Z,98676.94
2022-08-28T20:30:18.314Z,98680.16
2022-08-28T20:32:45.266Z,98689.72
2022-08-28T20:35:13.504Z,98693.59
2022-08-28T20:37:45.511Z,98681.69
2022-08-28T20:40:19.367Z,98681.72
2022-08-28T20:42:46.824Z,98693.38
2022-08-28T20:45:15.720Z,98690.94
2022-08-28T20:47:43.097Z,98692.06
2022-08-28T20:50:11.203Z,98692.56
2022-08-28T20:52:38.660Z,98706.63
2022-08-28T20:55:07.816Z,98707.44
2022-08-28T20:57:35.330Z,98711.50
2022-08-28T21:00:05.632Z,98712.22
2022-08-28T21:02:33.369Z,98715.78
2022-08-28T21:05:01.155Z,98716.50
2022-08-28T21:07:28.333Z,98709.38
2022-08-28T21:10:05.506Z,98718.94
2022-08-28T21:12:35.990Z,98720.78
2022-08-28T21:15:03.661Z,98716.31
2022-08-28T21:17:30.954Z,98718.06
2022-08-28T21:20:04.241Z,98716.50
2022-08-28T21:22:33.024Z,98715.78
2022-08-28T21:25:02.853Z,98712.22
2022-08-28T21:27:29.774Z,98715.88
2022-08-28T21:29:58.668Z,98714.34
2022-08-28T21:32:27.628Z,98711.19
2022-08-28T21:34:55.308Z,98718.41
2022-08-28T21:37:22.775Z,98713.25
2022-08-28T21:39:49.766Z,98723.47
2022-08-28T21:42:16.732Z,98723.72
2022-08-28T21:44:51.261Z,98724.53
2022-08-28T21:47:21.622Z,98717.59
2022-08-28T21:49:58.152Z,98715.16
2022-08-28T21:52:30.649Z,98719.75
2022-08-28T21:54:59.940Z,98714.47
2022-08-28T21:57:27.874Z,98719.34
2022-08-28T21:59:55.538Z,98715.38
2022-08-28T22:02:23.229Z,98720.66
2022-08-28T22:04:50.497Z,98722.59
2022-08-28T22:07:18.084Z,98720.41
2022-08-28T22:09:45.426Z,98720.50
2022-08-28T22:12:12.341Z,98723.53
2022-08-28T22:14:39.275Z,98727.56
2022-08-28T22:17:10.797Z,98727.84
2022-08-28T22:19:39.478Z,98732.47
2022-08-28T22:22:25.201Z,98732.00
2022-08-28T22:24:52.111Z,98726.72
2022-08-28T22:27:19.119Z,98723.13
2022-08-28T22:29:46.116Z,98731.06
2022-08-28T22:32:13.057Z,98731.25
2022-08-28T22:34:46.323Z,98727.28
2022-08-28T22:37:13.759Z,98727.13
2022-08-28T22:39:42.108Z,98723.25
2022-08-28T22:42:09.956Z,98724.53
2022-08-28T22:44:37.355Z,98726.06
2022-08-28T22:47:05.060Z,98723.53
2022-08-28T22:49:32.065Z,98721.37
2022-08-28T22:51:58.975Z,98721.31
2022-08-28T22:54:26.646Z,98714.56
2022-08-28T22:56:53.550Z,98718.53
2022-08-28T22:59:20.477Z,98720.16
2022-08-28T23:01:47.471Z,98721.50
2022-08-28T23:04:14.448Z,98722.66
2022-08-28T23:06:41.438Z,98715.53
2022-08-28T23:09:08.904Z,98713.22
2022-08-28T23:11:36.703Z,98712.41
2022-08-28T23:14:05.550Z,98708.16
2022-08-28T23:16:33.572Z,98710.19
2022-08-28T23:19:13.355Z,98710.81
2022-08-28T23:21:43.650Z,98706.81
2022-08-28T23:24:11.633Z,98705.50
2022-08-28T23:26:38.542Z,98705.09
2022-08-28T23:29:05.805Z,98705.50
2022-08-28T23:31:32.756Z,98696.44
2022-08-28T23:34:00.087Z,98696.75
2022-08-28T23:36:27.022Z,98702.53
2022-08-28T23:38:53.990Z,98701.47
2022-08-28T23:41:21.429Z,98707.94
2022-08-28T23:43:49.167Z,98700.09
2022-08-28T23:46:17.799Z,98700.00
2022-08-28T23:48:45.580Z,98698.22
2022-08-28T23:51:16.553Z,98697.44
2022-08-28T23:53:44.039Z,98697.97
2022-08-28T23:56:12.935Z,98698.06
2022-08-28T23:58:40.360Z,98700.91
